Khaskovo, Bulgaria
Current Conditions -  °F | °C
As of 1:00 AM on Sunday 26 Oct 2014 (Local Time) from LBPD Reporting Station
Moderate Rain Moderate Rain  
Wind Chill: 31°   Ceiling: 4200
Heat Index: 37°   Visibility: 5mi
Dew Point: 37°   Wind: 9mph
Humidity: 100%   Direction: 280°W
Pressure: 30.21"   Gusts: NA
Location:  41.94°N, 25.57°E
Report Text: LBPD 252200Z 28004MPS 8000 RA SCT018 OVC042 03/03 Q1023 NOSIG
Loading
Personal Weather Stations






























Interactive Weather Map
Tropical Storm Tracking
New forecast layout! Learn more

10-Day Weather Forecast

Advertisements
Track Severe Weather on mobile